Time;durP1;ratioP1;P1;durP2;ratioP2;P2;SDS_P1;SDS_P2;PMS_P1;PMS_P2;Temp;Humidity;BMP_temperature;BMP_pressure;BME280_temperature;BME280_humidity;BME280_pressure;Samples;Min_cycle;Max_cycle;Signal;HPM_P1;HPM_P2
2023/05/28 20:23:10;;;;;;;0.60;0.60;;;22.50;99.90;;;;;;1918057;72;26439;-63
2023/05/28 20:25:58;;;;;;;1.50;0.60;;;22.50;99.90;;;;;;1921462;73;26254;-64
2023/05/28 20:28:46;;;;;;;3.53;0.60;;;22.50;99.90;;;;;;1933541;73;26122;-60
2023/05/28 20:31:35;;;;;;;1.67;0.70;;;22.70;99.80;;;;;;1915119;72;25156;-60
2023/05/28 20:34:24;;;;;;;2.37;0.70;;;22.60;99.90;;;;;;1891476;75;25203;-60
2023/05/28 20:42:31;;;;;;;2.20;0.70;;;22.60;99.90;;;;;;1940991;72;27145;-58
2023/05/28 20:45:20;;;;;;;3.70;0.60;;;22.50;99.90;;;;;;1892648;75;25181;-59
2023/05/28 20:48:08;;;;;;;3.50;0.70;;;22.50;99.90;;;;;;1890550;75;25491;-60
2023/05/28 20:50:57;;;;;;;0.93;0.80;;;22.50;99.90;;;;;;1879154;75;25688;-60
2023/05/28 20:53:45;;;;;;;0.60;0.60;;;22.50;99.80;;;;;;1893797;75;25790;-59
2023/05/28 20:56:35;;;;;;;0.60;0.60;;;22.50;99.80;;;;;;1899478;75;25173;-59
2023/05/28 20:59:26;;;;;;;0.87;0.70;;;22.50;99.90;;;;;;1895434;75;25175;-59
2023/05/28 21:02:14;;;;;;;1.00;0.60;;;22.50;99.80;;;;;;1890931;75;25998;-60
2023/05/28 21:05:03;;;;;;;0.77;0.77;;;22.50;99.80;;;;;;1888854;75;25221;-60
2023/05/28 21:07:52;;;;;;;0.60;0.60;;;22.50;99.80;;;;;;1911989;73;25133;-60
2023/05/28 21:10:42;;;;;;;0.70;0.70;;;22.50;99.80;;;;;;1886932;75;25161;-60
2023/05/28 21:13:31;;;;;;;0.87;0.80;;;22.50;99.80;;;;;;1888340;75;26054;-60
2023/05/28 21:16:19;;;;;;;0.60;0.60;;;22.50;99.80;;;;;;1885246;73;25678;-59
2023/05/28 21:21:46;;;;;;;0.70;0.70;;;22.40;99.80;;;;;;1916860;74;28103;-58
2023/05/28 21:24:34;;;;;;;0.70;0.70;;;22.40;99.70;;;;;;1867050;75;25165;-61
2023/05/28 21:27:23;;;;;;;1.07;0.60;;;22.40;99.70;;;;;;1873624;76;25671;-59
2023/05/28 21:30:13;;;;;;;1.83;0.90;;;22.40;99.70;;;;;;1865274;76;25319;-58
2023/05/28 21:33:01;;;;;;;1.30;0.57;;;22.40;99.70;;;;;;1869864;76;25234;-61
2023/05/28 21:35:50;;;;;;;0.70;0.70;;;22.40;99.60;;;;;;1867805;76;25724;-57
2023/05/28 21:38:38;;;;;;;0.60;0.60;;;22.40;99.70;;;;;;1864806;75;25262;-61
2023/05/28 21:41:27;;;;;;;0.60;0.60;;;22.40;99.60;;;;;;1858787;76;25247;-61
2023/05/28 21:44:16;;;;;;;2.20;0.60;;;22.40;99.60;;;;;;1840611;77;25331;-60
2023/05/28 21:49:43;;;;;;;0.60;0.60;;;22.40;99.60;;;;;;1927050;73;27152;-57
2023/05/28 21:57:49;;;;;;;0.70;0.67;;;22.40;99.50;;;;;;1931025;72;27099;-59
2023/05/28 22:00:37;;;;;;;2.20;0.70;;;22.30;99.40;;;;;;1906259;75;25228;-61
2023/05/28 22:03:26;;;;;;;0.70;0.70;;;22.30;99.40;;;;;;1912661;74;25143;-61
2023/05/28 22:06:14;;;;;;;3.03;0.70;;;22.30;99.40;;;;;;1911435;75;25570;-61
2023/05/28 22:09:03;;;;;;;0.40;0.40;;;22.30;99.40;;;;;;1911712;75;25202;-61
2023/05/28 22:11:53;;;;;;;0.67;0.67;;;22.30;99.40;;;;;;1896254;75;25222;-60
2023/05/28 22:14:42;;;;;;;0.57;0.57;;;22.30;99.50;;;;;;1898241;74;25156;-60
2023/05/28 22:17:32;;;;;;;4.67;0.57;;;22.30;99.40;;;;;;1895120;74;25246;-60
2023/05/28 22:20:20;;;;;;;1.13;0.57;;;22.30;99.40;;;;;;1894949;75;25529;-60
2023/05/28 22:23:09;;;;;;;0.50;0.43;;;22.20;99.40;;;;;;1890879;75;25202;-60
2023/05/28 22:25:57;;;;;;;0.57;0.57;;;22.20;99.40;;;;;;1893879;75;25171;-61
2023/05/28 22:28:46;;;;;;;0.60;0.60;;;22.20;99.40;;;;;;1899525;75;25946;-60
2023/05/28 22:31:35;;;;;;;0.73;0.70;;;22.20;99.40;;;;;;1903231;75;25200;-60
2023/05/28 22:34:23;;;;;;;1.33;0.53;;;22.20;99.40;;;;;;1897227;74;25929;-59
2023/05/28 22:37:11;;;;;;;2.80;0.50;;;22.20;99.40;;;;;;1911197;75;25797;-60
2023/05/28 22:42:40;;;;;;;1.80;0.60;;;22.20;99.40;;;;;;1947279;72;27163;-59
2023/05/28 22:45:28;;;;;;;0.60;0.60;;;22.20;99.40;;;;;;1930411;73;25165;-60
2023/05/28 22:48:16;;;;;;;0.40;0.40;;;22.20;99.40;;;;;;1917596;73;25654;-59
2023/05/28 22:51:05;;;;;;;0.60;0.50;;;22.20;99.40;;;;;;1917559;74;25792;-60
2023/05/28 22:53:56;;;;;;;0.70;0.70;;;22.20;99.40;;;;;;1916569;74;26256;-58
2023/05/28 22:56:45;;;;;;;1.70;0.60;;;22.20;99.30;;;;;;1919717;73;25274;-59
2023/05/28 22:59:34;;;;;;;0.57;0.57;;;22.20;99.30;;;;;;1912674;74;25208;-59
2023/05/28 23:02:22;;;;;;;0.60;0.60;;;22.20;99.30;;;;;;1923518;73;25212;-58
2023/05/28 23:05:13;;;;;;;0.40;0.40;;;22.20;99.30;;;;;;1916138;74;25217;-59
2023/05/28 23:08:01;;;;;;;0.50;0.50;;;22.20;99.30;;;;;;1899936;74;25784;-58
2023/05/28 23:10:50;;;;;;;0.50;0.50;;;22.20;99.30;;;;;;1881402;75;25626;-59
2023/05/28 23:16:26;;;;;;;1.80;0.50;;;22.20;99.40;;;;;;1940145;72;28127;-59
2023/05/28 23:21:52;;;;;;;0.40;0.40;;;22.10;99.40;;;;;;1930270;72;27648;-58
2023/05/28 23:24:40;;;;;;;0.60;0.60;;;22.20;99.80;;;;;;1889483;74;25211;-60
2023/05/28 23:27:28;;;;;;;0.83;0.50;;;22.10;99.40;;;;;;1892425;74;25180;-60
2023/05/28 23:30:17;;;;;;;0.70;0.63;;;22.10;99.40;;;;;;1910025;74;25150;-60
2023/05/28 23:33:05;;;;;;;0.50;0.50;;;22.10;99.40;;;;;;1905387;74;25159;-60
2023/05/28 23:35:54;;;;;;;0.50;0.50;;;22.10;99.30;;;;;;1899856;75;25159;-60
2023/05/28 23:38:42;;;;;;;0.43;0.43;;;22.10;99.40;;;;;;1894602;75;25179;-61
2023/05/28 23:41:31;;;;;;;0.67;0.67;;;22.10;99.40;;;;;;1911571;74;25211;-61
2023/05/28 23:44:19;;;;;;;0.80;0.50;;;22.10;99.40;;;;;;1865304;76;26107;-60
2023/05/28 23:47:08;;;;;;;0.40;0.40;;;22.10;99.40;;;;;;1867860;76;25201;-60
2023/05/28 23:49:57;;;;;;;0.40;0.40;;;22.10;99.40;;;;;;1870604;76;25192;-60
2023/05/28 23:52:45;;;;;;;3.63;0.50;;;22.10;99.40;;;;;;1874430;76;26055;-60
2023/05/28 23:55:33;;;;;;;0.60;0.60;;;22.10;99.40;;;;;;1866981;76;25181;-60
2023/05/28 23:58:21;;;;;;;0.50;0.50;;;22.00;99.40;;;;;;1872013;76;25216;-60
